createdAt,value
2019-01-31T00:00:03.866Z,74.60
2019-01-31T00:01:04.313Z,74.57
2019-01-31T00:02:04.853Z,74.77
2019-01-31T00:03:05.304Z,74.46
2019-01-31T00:04:05.833Z,74.57
2019-01-31T00:05:06.269Z,74.25
2019-01-31T00:06:06.768Z,74.46
2019-01-31T00:07:07.238Z,73.83
2019-01-31T00:08:07.706Z,74.04
2019-01-31T00:09:08.134Z,74.35
2019-01-31T00:10:09.665Z,74.35
2019-01-31T00:11:10.096Z,74.25
2019-01-31T00:12:10.632Z,74.11
2019-01-31T00:13:11.065Z,73.70
2019-01-31T00:14:11.535Z,73.91
2019-01-31T00:15:11.964Z,73.80
2019-01-31T00:16:12.470Z,73.49
2019-01-31T00:17:12.933Z,73.52
2019-01-31T00:18:13.419Z,73.91
2019-01-31T00:19:13.855Z,73.49
2019-01-31T00:20:14.341Z,73.91
2019-01-31T00:21:14.777Z,73.49
2019-01-31T00:22:15.317Z,73.70
2019-01-31T00:23:15.751Z,73.80
2019-01-31T00:24:16.215Z,73.46
2019-01-31T00:25:16.652Z,73.28
2019-01-31T00:26:19.193Z,73.49
2019-01-31T00:27:19.653Z,73.60
2019-01-31T00:28:22.179Z,73.60
2019-01-31T00:29:22.616Z,73.60
2019-01-31T00:30:23.121Z,73.39
2019-01-31T00:31:23.563Z,73.60
2019-01-31T00:32:24.086Z,73.28
2019-01-31T00:33:24.522Z,73.28
2019-01-31T00:34:24.991Z,73.28
2019-01-31T00:35:25.534Z,73.49
2019-01-31T00:36:26.040Z,73.49
2019-01-31T00:37:26.512Z,73.70
2019-01-31T00:38:27.066Z,73.60
2019-01-31T00:39:27.538Z,73.39
2019-01-31T00:40:28.056Z,73.49
2019-01-31T00:41:28.502Z,73.35
2019-01-31T00:42:29.025Z,73.66
2019-01-31T00:43:29.462Z,73.46
2019-01-31T00:44:29.937Z,73.60
2019-01-31T00:45:30.371Z,73.70
2019-01-31T00:46:30.865Z,73.49
2019-01-31T00:47:31.308Z,73.39
2019-01-31T00:48:31.819Z,73.70
2019-01-31T00:49:32.249Z,73.49
2019-01-31T00:50:32.736Z,73.49
2019-01-31T00:51:33.176Z,73.28
2019-01-31T00:52:34.737Z,73.49
2019-01-31T00:53:35.175Z,73.39
2019-01-31T00:54:35.641Z,73.60
2019-01-31T00:55:36.084Z,73.28
2019-01-31T00:56:36.565Z,73.28
2019-01-31T00:57:37.049Z,73.28
2019-01-31T00:58:37.498Z,73.60
2019-01-31T00:59:37.925Z,73.60
2019-01-31T01:00:38.444Z,73.28
2019-01-31T01:01:38.885Z,73.39
2019-01-31T01:02:39.408Z,73.70
2019-01-31T01:03:39.855Z,73.25
2019-01-31T01:04:40.392Z,73.49
2019-01-31T01:05:40.826Z,73.56
2019-01-31T01:06:41.256Z,73.25
2019-01-31T01:07:41.708Z,73.60
2019-01-31T01:08:42.147Z,73.28
2019-01-31T01:09:42.583Z,73.60
2019-01-31T01:10:43.039Z,73.60
2019-01-31T01:11:43.497Z,73.70
2019-01-31T01:12:43.982Z,73.70
2019-01-31T01:13:44.448Z,73.14
2019-01-31T01:14:44.908Z,73.49
2019-01-31T01:15:45.366Z,73.39
2019-01-31T01:16:45.815Z,73.39
2019-01-31T01:17:46.302Z,73.60
2019-01-31T01:18:46.996Z,73.49
2019-01-31T01:19:47.562Z,73.46
2019-01-31T01:20:48.012Z,73.56
2019-01-31T01:21:48.468Z,73.49
2019-01-31T01:22:48.943Z,73.35
2019-01-31T01:23:49.394Z,73.25
2019-01-31T01:24:49.851Z,73.60
2019-01-31T01:25:50.303Z,73.28
2019-01-31T01:26:50.762Z,73.25
2019-01-31T01:27:51.247Z,73.66
2019-01-31T01:28:51.694Z,73.49
2019-01-31T01:29:52.149Z,73.49
2019-01-31T01:30:52.610Z,73.35
2019-01-31T01:31:53.066Z,73.77
2019-01-31T01:32:53.527Z,73.87
2019-01-31T01:33:53.985Z,73.25
2019-01-31T01:35:01.079Z,73.35
2019-01-31T01:36:00.847Z,73.56
2019-01-31T01:37:01.302Z,73.46
2019-01-31T01:38:02.040Z,73.66
2019-01-31T01:39:02.496Z,73.66
2019-01-31T01:40:02.945Z,73.66
2019-01-31T01:41:03.389Z,73.35
2019-01-31T01:42:03.830Z,72.94
2019-01-31T01:43:04.316Z,73.14
2019-01-31T01:44:04.765Z,73.04
2019-01-31T01:45:05.216Z,72.94
2019-01-31T01:46:05.665Z,73.04
2019-01-31T01:47:06.118Z,73.25
2019-01-31T01:48:06.606Z,73.66
2019-01-31T01:49:07.059Z,73.66
2019-01-31T01:50:07.515Z,73.35
2019-01-31T01:51:07.979Z,73.46
2019-01-31T01:52:08.487Z,73.04
2019-01-31T01:53:09.050Z,73.35
2019-01-31T01:54:09.498Z,73.25
2019-01-31T01:55:09.935Z,73.25
2019-01-31T01:56:10.382Z,73.25
2019-01-31T01:57:10.831Z,73.35
2019-01-31T01:58:11.410Z,73.25
2019-01-31T01:59:11.948Z,73.18
2019-01-31T02:00:12.385Z,73.18
2019-01-31T02:01:12.818Z,73.25
2019-01-31T02:02:13.246Z,73.18
2019-01-31T02:03:13.715Z,73.70
2019-01-31T02:04:14.152Z,73.91
2019-01-31T02:05:14.581Z,73.28
2019-01-31T02:06:15.017Z,73.49
2019-01-31T02:07:15.461Z,73.39
2019-01-31T02:08:15.938Z,73.60
2019-01-31T02:09:16.382Z,73.56
2019-01-31T02:10:16.828Z,73.49
2019-01-31T02:11:17.264Z,73.35
2019-01-31T02:12:17.699Z,73.80
2019-01-31T02:13:18.178Z,73.39
2019-01-31T02:14:18.610Z,73.66
2019-01-31T02:15:19.050Z,73.56
2019-01-31T02:16:19.519Z,73.46
2019-01-31T02:17:19.962Z,73.46
2019-01-31T02:18:20.439Z,73.25
2019-01-31T02:19:20.932Z,73.66
2019-01-31T02:20:21.440Z,73.77
2019-01-31T02:21:21.884Z,73.25
2019-01-31T02:22:22.368Z,73.66
2019-01-31T02:23:22.824Z,73.66
2019-01-31T02:24:23.273Z,73.28
2019-01-31T02:25:23.811Z,73.14
2019-01-31T02:26:24.246Z,73.70
2019-01-31T02:27:24.683Z,73.28
2019-01-31T02:28:25.156Z,73.49
2019-01-31T02:29:25.594Z,73.39
2019-01-31T02:30:26.700Z,73.28
2019-01-31T02:31:28.260Z,73.07
2019-01-31T02:32:28.868Z,73.49
2019-01-31T02:33:29.352Z,73.39
2019-01-31T02:34:29.796Z,73.28
2019-01-31T02:35:30.231Z,73.04
2019-01-31T02:36:30.670Z,73.39
2019-01-31T02:37:31.116Z,73.28
2019-01-31T02:38:31.567Z,73.49
2019-01-31T02:39:42.791Z,73.28
2019-01-31T02:40:38.402Z,73.60
2019-01-31T02:41:38.840Z,73.60
2019-01-31T02:42:39.278Z,73.70
2019-01-31T02:43:39.731Z,73.49
2019-01-31T02:44:40.185Z,73.70
2019-01-31T02:45:40.630Z,73.60
2019-01-31T02:46:41.068Z,73.80
2019-01-31T02:47:41.513Z,73.28
2019-01-31T02:48:42.030Z,73.39
2019-01-31T02:49:42.479Z,73.60
2019-01-31T02:50:42.919Z,73.60
2019-01-31T02:51:43.355Z,73.49
2019-01-31T02:52:43.809Z,73.28
2019-01-31T02:53:44.289Z,73.25
2019-01-31T02:54:44.740Z,73.25
2019-01-31T02:55:45.180Z,73.14
2019-01-31T02:56:45.621Z,73.39
2019-01-31T02:57:46.075Z,73.35
2019-01-31T02:58:46.712Z,73.25
2019-01-31T02:59:47.152Z,73.35
2019-01-31T03:00:47.592Z,73.35
2019-01-31T03:01:48.025Z,73.46
2019-01-31T03:02:48.564Z,73.35
2019-01-31T03:03:49.074Z,73.49
2019-01-31T03:04:51.538Z,73.18
2019-01-31T03:05:51.970Z,73.35
2019-01-31T03:06:52.423Z,73.18
2019-01-31T03:07:52.862Z,73.39
2019-01-31T03:08:53.315Z,73.28
2019-01-31T03:09:55.124Z,73.28
2019-01-31T03:10:55.688Z,73.28
2019-01-31T03:11:56.121Z,73.28
2019-01-31T03:12:56.565Z,73.07
2019-01-31T03:14:09.445Z,73.80
2019-01-31T03:15:03.440Z,73.28
2019-01-31T03:16:03.869Z,73.39
2019-01-31T03:17:04.418Z,73.49
2019-01-31T03:18:04.924Z,73.18
2019-01-31T03:19:05.398Z,73.39
2019-01-31T03:20:05.856Z,73.39
2019-01-31T03:21:06.291Z,73.73
2019-01-31T03:22:06.749Z,73.42
2019-01-31T03:23:07.193Z,73.32
2019-01-31T03:24:07.672Z,73.52
2019-01-31T03:25:08.112Z,73.11
2019-01-31T03:26:08.553Z,73.42
2019-01-31T03:27:08.995Z,73.11
2019-01-31T03:28:09.453Z,73.42
2019-01-31T03:29:09.918Z,73.32
2019-01-31T03:30:10.353Z,73.11
2019-01-31T03:31:10.794Z,73.21
2019-01-31T03:32:11.418Z,73.14
2019-01-31T03:33:11.889Z,73.25
2019-01-31T03:34:12.353Z,73.25
2019-01-31T03:35:12.918Z,73.25
2019-01-31T03:36:13.357Z,73.77
2019-01-31T03:37:13.799Z,73.77
2019-01-31T03:38:14.241Z,73.56
2019-01-31T03:39:14.711Z,73.80
2019-01-31T03:40:15.163Z,73.28
2019-01-31T03:41:15.613Z,73.59
2019-01-31T03:42:16.057Z,73.59
2019-01-31T03:43:16.520Z,73.38
2019-01-31T03:44:17.002Z,73.69
2019-01-31T03:45:17.461Z,73.69
2019-01-31T03:46:17.922Z,73.49
2019-01-31T03:47:18.382Z,73.83
2019-01-31T03:48:18.851Z,73.73
2019-01-31T03:49:19.634Z,73.59
2019-01-31T03:50:20.092Z,73.59
2019-01-31T03:51:20.572Z,73.80
2019-01-31T03:52:21.023Z,74.01
2019-01-31T03:53:21.478Z,73.90
2019-01-31T03:54:21.960Z,73.69
2019-01-31T03:55:22.439Z,73.38
2019-01-31T03:56:22.893Z,73.59
2019-01-31T03:57:23.343Z,73.56
2019-01-31T03:58:23.795Z,73.49
2019-01-31T03:59:24.271Z,73.80
2019-01-31T04:00:24.731Z,73.38
2019-01-31T04:01:25.213Z,73.28
2019-01-31T04:02:25.670Z,73.49
2019-01-31T04:03:26.124Z,73.18
2019-01-31T04:04:26.611Z,73.49
2019-01-31T04:05:27.121Z,73.49
2019-01-31T04:06:27.576Z,73.18
2019-01-31T04:07:28.027Z,73.83
2019-01-31T04:08:28.474Z,73.42
2019-01-31T04:09:28.965Z,73.32
2019-01-31T04:10:29.537Z,73.21
2019-01-31T04:11:29.980Z,73.83
2019-01-31T04:12:30.438Z,73.45
2019-01-31T04:13:30.887Z,73.73
2019-01-31T04:14:31.365Z,73.52
2019-01-31T04:15:31.807Z,73.76
2019-01-31T04:16:32.255Z,73.66
2019-01-31T04:17:32.722Z,73.55
2019-01-31T04:18:33.241Z,73.66
2019-01-31T04:19:33.764Z,73.55
2019-01-31T04:20:34.231Z,73.76
2019-01-31T04:21:34.698Z,73.66
2019-01-31T04:22:35.143Z,73.66
2019-01-31T04:23:35.597Z,73.76
2019-01-31T04:24:36.060Z,73.76
2019-01-31T04:25:36.520Z,73.76
2019-01-31T04:26:36.977Z,73.90
2019-01-31T04:27:37.438Z,74.01
2019-01-31T04:28:37.914Z,73.49
2019-01-31T04:29:38.389Z,73.69
2019-01-31T04:30:38.822Z,74.01
2019-01-31T04:31:39.250Z,74.01
2019-01-31T04:32:39.684Z,73.69
2019-01-31T04:33:40.116Z,73.69
2019-01-31T04:34:41.693Z,73.49
2019-01-31T04:35:42.137Z,73.80
2019-01-31T04:36:42.693Z,73.59
2019-01-31T04:37:43.140Z,73.80
2019-01-31T04:38:43.631Z,73.90
2019-01-31T04:39:44.088Z,73.80
2019-01-31T04:40:45.633Z,73.90
2019-01-31T04:41:46.087Z,73.80
2019-01-31T04:42:53.593Z,73.59
2019-01-31T04:43:54.029Z,73.59
2019-01-31T04:44:54.560Z,73.80
2019-01-31T04:45:54.998Z,74.01
2019-01-31T04:46:55.425Z,73.69
2019-01-31T04:47:56.374Z,73.69
2019-01-31T04:48:57.015Z,73.69
2019-01-31T04:49:57.461Z,73.90
2019-01-31T04:50:57.899Z,74.04
2019-01-31T04:51:58.328Z,73.69
2019-01-31T04:52:58.771Z,73.72
2019-01-31T04:53:59.203Z,73.93
2019-01-31T04:54:59.670Z,73.93
2019-01-31T04:56:00.209Z,73.62
2019-01-31T04:57:00.643Z,73.52
2019-01-31T04:58:01.090Z,73.72
2019-01-31T04:59:01.534Z,73.90
2019-01-31T05:00:02.002Z,73.93
2019-01-31T05:01:03.136Z,73.52
2019-01-31T05:02:03.659Z,73.52
2019-01-31T05:03:04.112Z,73.62
2019-01-31T05:04:04.551Z,73.41
2019-01-31T05:05:05.042Z,73.41
2019-01-31T05:06:05.484Z,73.62
2019-01-31T05:07:05.924Z,73.21
2019-01-31T05:08:06.405Z,73.34
2019-01-31T05:09:06.844Z,73.34
2019-01-31T05:10:07.307Z,73.55
2019-01-31T05:11:07.814Z,73.66
2019-01-31T05:12:08.362Z,73.66
2019-01-31T05:13:08.806Z,73.21
2019-01-31T05:14:09.242Z,73.55
2019-01-31T05:15:09.708Z,73.45
2019-01-31T05:16:10.207Z,73.66
2019-01-31T05:17:10.644Z,73.97
2019-01-31T05:18:11.080Z,73.97
2019-01-31T05:19:11.515Z,73.86
2019-01-31T05:20:11.977Z,73.45
2019-01-31T05:21:12.420Z,73.76
2019-01-31T05:22:12.911Z,73.34
2019-01-31T05:23:13.350Z,73.97
2019-01-31T05:24:13.788Z,73.45
2019-01-31T05:25:14.273Z,73.66
2019-01-31T05:26:14.713Z,73.66
2019-01-31T05:27:15.148Z,73.55
2019-01-31T05:28:15.574Z,73.45
2019-01-31T05:29:16.132Z,73.34
2019-01-31T05:30:16.587Z,73.45
2019-01-31T05:31:17.053Z,73.55
2019-01-31T05:32:17.494Z,73.66
2019-01-31T05:33:17.938Z,73.55
2019-01-31T05:34:18.377Z,73.66
2019-01-31T05:35:18.872Z,73.66
2019-01-31T05:36:19.321Z,73.76
2019-01-31T05:37:19.771Z,73.69
2019-01-31T05:38:20.220Z,73.66
2019-01-31T05:39:20.666Z,73.76
2019-01-31T05:40:21.118Z,73.58
2019-01-31T05:41:21.569Z,73.58
2019-01-31T05:42:22.006Z,73.76
2019-01-31T05:43:22.447Z,73.79
2019-01-31T05:44:22.876Z,73.79
2019-01-31T05:45:23.340Z,73.79
2019-01-31T05:46:23.781Z,73.69
2019-01-31T05:47:24.223Z,73.38
2019-01-31T05:48:24.723Z,73.27
2019-01-31T05:49:25.162Z,73.13
2019-01-31T05:50:25.637Z,73.07
2019-01-31T05:51:26.219Z,72.96
2019-01-31T05:52:26.679Z,72.85
2019-01-31T05:53:27.105Z,72.44
2019-01-31T05:54:27.545Z,72.13
2019-01-31T05:55:28.012Z,72.23
2019-01-31T05:56:28.457Z,72.54
2019-01-31T05:57:28.902Z,72.44
2019-01-31T05:58:29.389Z,72.13
2019-01-31T05:59:29.839Z,72.54
2019-01-31T06:00:30.322Z,72.64
2019-01-31T06:01:30.779Z,72.33
2019-01-31T06:02:31.230Z,72.75
2019-01-31T06:03:31.668Z,73.07
2019-01-31T06:04:32.227Z,72.13
2019-01-31T06:05:32.702Z,72.02
2019-01-31T06:06:33.138Z,72.02
2019-01-31T06:07:33.582Z,72.23
2019-01-31T06:08:34.036Z,72.13
2019-01-31T06:09:34.470Z,71.81
2019-01-31T06:10:34.945Z,71.81
2019-01-31T06:11:35.390Z,71.70
2019-01-31T06:12:35.940Z,72.13
2019-01-31T06:13:36.394Z,71.74
2019-01-31T06:14:36.843Z,72.13
2019-01-31T06:15:37.289Z,71.95
2019-01-31T06:16:37.720Z,71.22
2019-01-31T06:17:38.193Z,71.32
2019-01-31T06:18:38.622Z,71.84
2019-01-31T06:19:39.061Z,71.32
2019-01-31T06:20:39.526Z,71.53
2019-01-31T06:21:39.962Z,71.74
2019-01-31T06:22:40.391Z,71.32
2019-01-31T06:23:40.836Z,71.56
2019-01-31T06:24:41.273Z,71.74
2019-01-31T06:25:41.755Z,71.53
2019-01-31T06:26:42.277Z,71.53
2019-01-31T06:27:42.711Z,71.32
2019-01-31T06:28:43.150Z,71.42
2019-01-31T06:29:43.595Z,71.11
2019-01-31T06:30:44.063Z,71.32
2019-01-31T06:31:44.490Z,71.11
2019-01-31T06:32:44.926Z,71.04
2019-01-31T06:33:45.361Z,70.83
2019-01-31T06:34:45.810Z,70.80
2019-01-31T06:35:46.282Z,70.83
2019-01-31T06:36:46.717Z,70.73
2019-01-31T06:37:47.157Z,71.25
2019-01-31T06:38:47.628Z,71.14
2019-01-31T06:39:48.101Z,70.83
2019-01-31T06:40:48.556Z,70.76
2019-01-31T06:41:49.006Z,70.86
2019-01-31T06:42:49.434Z,71.59
2019-01-31T06:43:49.870Z,71.28
2019-01-31T06:44:50.333Z,71.59
2019-01-31T06:45:50.783Z,72.22
2019-01-31T06:46:51.273Z,71.91
2019-01-31T06:47:51.707Z,72.05
2019-01-31T06:48:52.138Z,71.80
2019-01-31T06:49:52.578Z,72.47
2019-01-31T06:50:53.040Z,72.25
2019-01-31T06:51:53.589Z,72.08
2019-01-31T06:52:54.316Z,72.50
2019-01-31T06:53:55.055Z,72.50
2019-01-31T06:54:55.484Z,72.32
2019-01-31T06:55:55.962Z,72.81
2019-01-31T06:56:56.395Z,72.60
2019-01-31T06:57:56.841Z,72.85
2019-01-31T06:58:57.274Z,72.32
2019-01-31T06:59:57.718Z,72.64
2019-01-31T07:00:58.199Z,72.32
2019-01-31T07:01:58.653Z,72.11
2019-01-31T07:02:59.085Z,72.42
2019-01-31T07:03:59.522Z,72.53
2019-01-31T07:04:59.977Z,72.74
2019-01-31T07:06:00.436Z,73.16
2019-01-31T07:07:00.862Z,72.22
2019-01-31T07:08:01.408Z,72.74
2019-01-31T07:09:01.865Z,72.53
2019-01-31T07:10:02.296Z,72.32
2019-01-31T07:11:02.763Z,72.22
2019-01-31T07:12:03.203Z,72.64
2019-01-31T07:13:03.769Z,72.85
2019-01-31T07:14:04.260Z,72.85
2019-01-31T07:15:04.698Z,72.85
2019-01-31T07:16:05.339Z,72.53
2019-01-31T07:17:05.780Z,72.22
2019-01-31T07:18:06.338Z,72.32
2019-01-31T07:19:06.805Z,72.22
2019-01-31T07:20:07.275Z,72.64
2019-01-31T07:21:07.780Z,72.74
2019-01-31T07:22:08.302Z,72.74
2019-01-31T07:23:08.740Z,72.85
2019-01-31T07:24:09.245Z,72.71
2019-01-31T07:25:09.680Z,72.81
2019-01-31T07:26:10.210Z,72.92
2019-01-31T07:27:10.669Z,72.92
2019-01-31T07:28:11.217Z,73.23
2019-01-31T07:29:11.653Z,73.02
2019-01-31T07:30:12.152Z,72.29
2019-01-31T07:31:12.753Z,72.08
2019-01-31T07:32:13.294Z,72.25
2019-01-31T07:33:13.724Z,72.50
2019-01-31T07:34:14.225Z,72.50
2019-01-31T07:35:14.665Z,72.25
2019-01-31T07:36:15.201Z,72.47
2019-01-31T07:37:15.629Z,72.25
2019-01-31T07:38:16.097Z,72.15
2019-01-31T07:39:16.544Z,71.94
2019-01-31T07:40:17.034Z,72.36
2019-01-31T07:41:17.505Z,72.02
2019-01-31T07:42:17.970Z,71.94
2019-01-31T07:43:18.414Z,72.02
2019-01-31T07:44:19.923Z,72.02
2019-01-31T07:45:20.361Z,72.33
2019-01-31T07:46:20.894Z,71.91
2019-01-31T07:47:21.334Z,72.22
2019-01-31T07:48:21.796Z,72.30
2019-01-31T07:49:22.236Z,72.33
2019-01-31T07:50:22.731Z,71.36
2019-01-31T07:51:23.194Z,71.25
2019-01-31T07:52:23.664Z,71.36
2019-01-31T07:53:24.224Z,72.08
2019-01-31T07:54:24.701Z,72.05
2019-01-31T07:55:25.140Z,71.22
2019-01-31T07:56:25.678Z,70.59
2019-01-31T07:57:26.115Z,70.80
2019-01-31T07:58:26.576Z,70.66
2019-01-31T07:59:27.015Z,70.66
2019-01-31T08:00:34.471Z,70.66
2019-01-31T08:01:34.929Z,70.87
2019-01-31T08:02:35.401Z,71.19
2019-01-31T08:03:35.840Z,71.36
2019-01-31T08:04:36.345Z,70.11
2019-01-31T08:05:36.781Z,70.39
2019-01-31T08:06:37.310Z,70.42
2019-01-31T08:07:37.744Z,70.63
2019-01-31T08:08:38.314Z,70.50
2019-01-31T08:09:38.757Z,71.12
2019-01-31T08:10:39.247Z,70.60
2019-01-31T08:11:39.705Z,70.18
2019-01-31T08:12:40.186Z,70.60
2019-01-31T08:13:40.620Z,70.36
2019-01-31T08:14:41.079Z,71.09
2019-01-31T08:15:41.528Z,70.56
2019-01-31T08:16:41.987Z,70.15
2019-01-31T08:17:48.938Z,70.12
2019-01-31T08:18:49.371Z,70.01
2019-01-31T08:19:49.809Z,70.64
2019-01-31T08:20:50.241Z,70.01
2019-01-31T08:21:50.719Z,70.22
2019-01-31T08:22:51.166Z,69.70
2019-01-31T08:23:51.609Z,70.01
2019-01-31T08:24:52.051Z,69.70
2019-01-31T08:25:52.483Z,70.09
2019-01-31T08:26:55.760Z,70.19
2019-01-31T08:27:56.876Z,69.98
2019-01-31T08:28:57.315Z,69.98
2019-01-31T08:29:57.747Z,69.98
2019-01-31T08:30:58.175Z,69.98
2019-01-31T08:31:58.636Z,69.87
2019-01-31T08:32:59.071Z,70.09
2019-01-31T08:33:59.585Z,69.87
2019-01-31T08:35:00.023Z,69.87
2019-01-31T08:36:00.451Z,69.87
2019-01-31T08:37:00.895Z,70.09
2019-01-31T08:38:01.343Z,70.50
2019-01-31T08:39:01.768Z,70.22
2019-01-31T08:40:02.210Z,70.19
2019-01-31T08:41:02.710Z,70.74
2019-01-31T08:42:04.104Z,70.22
2019-01-31T08:43:04.592Z,70.84
2019-01-31T08:44:05.044Z,70.22
2019-01-31T08:45:05.492Z,70.32
2019-01-31T08:46:06.021Z,70.32
2019-01-31T08:47:06.503Z,70.32
2019-01-31T08:48:06.958Z,70.56
2019-01-31T08:49:08.515Z,70.25
2019-01-31T08:50:08.981Z,70.36
2019-01-31T08:51:09.425Z,70.04
2019-01-31T08:52:09.883Z,70.04
2019-01-31T08:53:10.373Z,70.04
2019-01-31T08:54:10.817Z,70.04
2019-01-31T08:55:11.255Z,70.15
2019-01-31T08:56:11.692Z,71.30
2019-01-31T08:57:12.295Z,71.09
2019-01-31T08:58:12.758Z,71.09
2019-01-31T08:59:13.265Z,71.22
2019-01-31T09:00:13.700Z,71.09
2019-01-31T09:01:14.204Z,71.30
2019-01-31T09:02:14.784Z,71.22
2019-01-31T09:03:15.240Z,71.09
2019-01-31T09:04:15.680Z,70.98
2019-01-31T09:05:16.174Z,71.26
2019-01-31T09:06:16.607Z,71.26
2019-01-31T09:07:17.079Z,70.22
2019-01-31T09:08:17.524Z,70.43
2019-01-31T09:09:19.070Z,70.92
2019-01-31T09:10:19.509Z,70.71
2019-01-31T09:11:19.946Z,70.19
2019-01-31T09:12:20.462Z,69.98
2019-01-31T09:13:22.443Z,69.95
2019-01-31T09:14:22.875Z,69.32
2019-01-31T09:15:23.318Z,69.43
2019-01-31T09:16:23.761Z,69.43
2019-01-31T09:17:24.259Z,69.60
2019-01-31T09:18:24.719Z,69.40
2019-01-31T09:19:25.264Z,69.29
2019-01-31T09:20:25.702Z,68.46
2019-01-31T09:21:26.202Z,68.88
2019-01-31T09:22:26.668Z,68.84
2019-01-31T09:23:27.100Z,68.63
2019-01-31T09:24:27.543Z,68.63
2019-01-31T09:25:28.102Z,68.91
2019-01-31T09:26:28.548Z,69.23
2019-01-31T09:27:29.041Z,68.95
2019-01-31T09:28:29.582Z,68.71
2019-01-31T09:29:30.044Z,68.71
2019-01-31T09:30:30.493Z,68.68
2019-01-31T09:31:37.974Z,68.71
2019-01-31T09:32:38.518Z,68.68
2019-01-31T09:33:39.394Z,68.57
2019-01-31T09:34:39.850Z,68.57
2019-01-31T09:35:40.334Z,67.92
2019-01-31T09:36:40.780Z,68.02
2019-01-31T09:37:41.301Z,68.13
2019-01-31T09:38:41.740Z,67.92
2019-01-31T09:39:42.297Z,68.33
2019-01-31T09:40:42.736Z,68.44
2019-01-31T09:41:43.192Z,68.30
2019-01-31T09:42:43.679Z,68.30
2019-01-31T09:43:44.251Z,68.20
2019-01-31T09:44:44.708Z,68.10
2019-01-31T09:45:46.287Z,67.65
2019-01-31T09:46:46.809Z,67.76
2019-01-31T09:47:47.358Z,67.44
2019-01-31T09:48:47.804Z,67.55
2019-01-31T09:49:48.242Z,67.34
2019-01-31T09:50:48.686Z,67.55
2019-01-31T09:51:49.198Z,67.93
2019-01-31T09:52:49.700Z,67.72
2019-01-31T09:53:50.228Z,67.41
2019-01-31T09:54:50.661Z,67.69
2019-01-31T09:55:51.277Z,67.38
2019-01-31T09:56:52.093Z,67.48
2019-01-31T09:57:52.572Z,67.17
2019-01-31T09:58:53.030Z,67.38
2019-01-31T09:59:53.455Z,67.38
2019-01-31T10:00:55.032Z,67.38
2019-01-31T10:01:55.550Z,67.17
2019-01-31T10:02:56.167Z,67.41
2019-01-31T10:03:56.609Z,68.00
2019-01-31T10:04:57.062Z,67.72
2019-01-31T10:05:57.515Z,67.93
2019-01-31T10:06:59.021Z,67.93
2019-01-31T10:07:59.498Z,68.13
2019-01-31T10:10:15.404Z,68.03
2019-01-31T10:11:16.126Z,68.13
2019-01-31T10:12:16.595Z,68.03
2019-01-31T10:13:17.229Z,68.13
2019-01-31T10:14:17.681Z,68.13
2019-01-31T10:15:18.345Z,68.00
2019-01-31T10:16:18.839Z,68.00
2019-01-31T10:17:19.414Z,68.21
2019-01-31T10:18:19.856Z,68.21
2019-01-31T10:19:23.162Z,68.00
2019-01-31T10:20:23.941Z,68.10
2019-01-31T10:21:24.486Z,68.00
2019-01-31T10:22:25.029Z,68.00
2019-01-31T10:23:25.655Z,68.00
2019-01-31T10:24:26.162Z,68.00
2019-01-31T10:25:26.764Z,68.10
2019-01-31T10:26:27.240Z,68.28
2019-01-31T10:27:27.786Z,67.90
2019-01-31T10:28:28.243Z,68.10
2019-01-31T10:29:28.806Z,67.97
2019-01-31T10:30:29.240Z,67.86
2019-01-31T10:31:29.731Z,67.86
2019-01-31T10:32:30.175Z,67.66
2019-01-31T10:33:30.712Z,67.45
2019-01-31T10:34:31.142Z,67.35
2019-01-31T10:35:31.734Z,67.76
2019-01-31T10:36:32.181Z,67.76
2019-01-31T10:37:32.653Z,67.86
2019-01-31T10:38:33.414Z,68.07
2019-01-31T10:39:35.614Z,67.97
2019-01-31T10:40:36.194Z,68.00
2019-01-31T10:41:36.669Z,67.97
2019-01-31T10:42:37.097Z,68.18
2019-01-31T10:43:37.644Z,68.07
2019-01-31T10:44:38.091Z,67.97
2019-01-31T10:45:38.539Z,67.97
2019-01-31T10:46:39.060Z,68.18
2019-01-31T10:47:39.513Z,68.07
2019-01-31T10:48:40.007Z,68.07
2019-01-31T10:49:40.492Z,68.62
2019-01-31T10:50:40.937Z,67.79
2019-01-31T10:51:41.375Z,67.58
2019-01-31T10:52:41.802Z,67.90
2019-01-31T10:53:42.346Z,67.79
2019-01-31T10:54:42.809Z,68.03
2019-01-31T10:55:43.242Z,68.44
2019-01-31T10:56:44.425Z,69.24
2019-01-31T10:57:44.963Z,69.24
2019-01-31T10:59:00.930Z,69.11
2019-01-31T11:00:01.379Z,69.11
2019-01-31T11:01:01.822Z,68.35
2019-01-31T11:02:02.265Z,68.46
2019-01-31T11:03:02.699Z,68.25
2019-01-31T11:04:03.175Z,68.46
2019-01-31T11:05:03.648Z,67.83
2019-01-31T11:06:04.096Z,67.83
2019-01-31T11:07:04.546Z,68.53
2019-01-31T11:08:04.973Z,68.12
2019-01-31T11:09:05.444Z,67.91
2019-01-31T11:10:05.877Z,68.01
2019-01-31T11:11:06.322Z,67.91
2019-01-31T11:12:06.784Z,67.91
2019-01-31T11:13:07.221Z,68.12
2019-01-31T11:14:07.673Z,67.67
2019-01-31T11:15:08.107Z,67.67
2019-01-31T11:16:08.539Z,68.40
2019-01-31T11:17:08.975Z,68.01
2019-01-31T11:18:09.409Z,67.67
2019-01-31T11:19:12.404Z,67.67
2019-01-31T11:20:13.211Z,67.77
2019-01-31T11:21:13.639Z,67.67
2019-01-31T11:22:14.078Z,67.88
2019-01-31T11:23:14.517Z,67.67
2019-01-31T11:24:14.996Z,68.08
2019-01-31T11:25:15.428Z,67.70
2019-01-31T11:26:17.905Z,68.19
2019-01-31T11:27:18.348Z,68.43
2019-01-31T11:28:18.799Z,68.43
2019-01-31T11:29:19.276Z,68.74
2019-01-31T11:30:19.709Z,68.32
2019-01-31T11:31:20.164Z,68.53
2019-01-31T11:32:20.605Z,68.32
2019-01-31T11:33:21.061Z,68.22
2019-01-31T11:34:32.440Z,68.74
2019-01-31T11:35:27.976Z,68.32
2019-01-31T11:36:28.414Z,68.56
2019-01-31T11:37:28.911Z,68.77
2019-01-31T11:38:29.354Z,68.98
2019-01-31T11:39:29.807Z,69.49
2019-01-31T11:40:30.241Z,69.49
2019-01-31T11:41:30.690Z,69.49
2019-01-31T11:42:31.130Z,69.18
2019-01-31T11:43:31.561Z,69.04
2019-01-31T11:44:32.042Z,69.15
2019-01-31T11:45:32.485Z,68.63
2019-01-31T11:46:32.962Z,69.25
2019-01-31T11:47:33.405Z,68.84
2019-01-31T11:48:33.855Z,68.84
2019-01-31T11:49:34.310Z,68.08
2019-01-31T11:50:34.781Z,68.49
2019-01-31T11:51:35.222Z,68.49
2019-01-31T11:52:35.658Z,67.77
2019-01-31T11:53:36.103Z,67.91
2019-01-31T11:54:36.571Z,67.77
2019-01-31T11:55:37.018Z,67.46
2019-01-31T11:56:37.544Z,68.32
2019-01-31T11:57:44.044Z,68.53
2019-01-31T11:58:44.482Z,68.74
2019-01-31T11:59:44.948Z,68.22
2019-01-31T12:00:45.389Z,68.43
2019-01-31T12:01:45.828Z,68.49
2019-01-31T12:02:54.706Z,68.53
2019-01-31T12:03:52.669Z,68.40
2019-01-31T12:04:53.120Z,68.32
2019-01-31T12:05:53.560Z,68.22
2019-01-31T12:06:53.992Z,68.08
2019-01-31T12:07:54.429Z,68.43
2019-01-31T12:08:54.859Z,68.32
2019-01-31T12:09:55.307Z,68.60
2019-01-31T12:10:55.746Z,68.19
2019-01-31T12:11:56.192Z,68.29
2019-01-31T12:12:56.624Z,68.29
2019-01-31T12:13:57.053Z,68.40
2019-01-31T12:14:57.538Z,68.91
2019-01-31T12:15:58.105Z,67.67
2019-01-31T12:16:58.536Z,68.40
2019-01-31T12:17:58.965Z,68.19
2019-01-31T12:18:59.538Z,68.49
2019-01-31T12:20:00.000Z,68.46
2019-01-31T12:21:00.436Z,68.67
2019-01-31T12:22:02.897Z,67.43
2019-01-31T12:23:03.351Z,67.82
2019-01-31T12:24:03.825Z,68.23
2019-01-31T12:25:04.318Z,67.61
2019-01-31T12:26:04.755Z,67.82
2019-01-31T12:27:05.190Z,67.82
2019-01-31T12:28:05.630Z,67.82
2019-01-31T12:29:06.060Z,68.12
2019-01-31T12:30:06.519Z,67.82
2019-01-31T12:31:06.954Z,67.71
2019-01-31T12:32:07.391Z,67.88
2019-01-31T12:33:07.869Z,67.19
2019-01-31T12:34:08.299Z,67.19
2019-01-31T12:35:08.752Z,67.61
2019-01-31T12:36:09.187Z,67.74
2019-01-31T12:37:09.626Z,68.26
2019-01-31T12:38:10.062Z,68.05
2019-01-31T12:39:10.496Z,69.01
2019-01-31T12:40:10.968Z,69.19
2019-01-31T12:41:11.405Z,68.98
2019-01-31T12:42:11.832Z,68.88
2019-01-31T12:43:12.265Z,67.95
2019-01-31T12:44:12.704Z,68.05
2019-01-31T12:45:13.189Z,68.15
2019-01-31T12:46:13.648Z,68.36
2019-01-31T12:47:14.083Z,68.57
2019-01-31T12:48:14.516Z,68.26
2019-01-31T12:49:14.961Z,68.36
2019-01-31T12:50:15.414Z,68.57
2019-01-31T12:51:15.861Z,68.88
2019-01-31T12:52:16.316Z,68.43
2019-01-31T12:53:16.763Z,68.23
2019-01-31T12:54:17.210Z,67.61
2019-01-31T12:55:17.685Z,67.71
2019-01-31T12:56:18.132Z,68.33
2019-01-31T12:57:18.562Z,68.36
2019-01-31T12:58:18.998Z,67.74
2019-01-31T12:59:19.427Z,67.64
2019-01-31T13:00:19.900Z,68.88
2019-01-31T13:01:20.330Z,68.08